Terminal Aerodrome Forecast
Issued by NWS Wilmington, OH

Home | Current Version | Previous Version | Text Only | Print | Product List | Glossary On
Versions: 1 2 3 4 5 6 7 8 9 10 11 12 13 14 15 16 17 18 19 20 21 22 23 24 25 26 27 28 29 30 31 32
000
FTUS41 KILN 200550
TAFCMH
TAF
KCMH 200550Z 2006/2106 01019G24KT P6SM RA OVC015
      TEMPO 2006/2009 4SM -RA BR BKN008
     FM201000 03010G21KT P6SM -SHRA OVC015
     FM201200 02008KT P6SM VCSH OVC008
     FM202100 27006KT P6SM VCSH BKN025
     FM210200 01003KT P6SM BKN015=

USA.gov is the U.S. government's official web portal to all federal, state and local government web resources and services.